Time;durP1;ratioP1;P1;durP2;ratioP2;P2;SDS_P1;SDS_P2;PMS_P1;PMS_P2;Temp;Humidity;BMP_temperature;BMP_pressure;BME280_temperature;BME280_humidity;BME280_pressure;Samples;Min_cycle;Max_cycle;Signal;HPM_P1;HPM_P2
2021/08/04 04:00:33;;;;;;;2.20;2.10;;;15.90;99.90;;;;;;5810764;23;20526;-70
2021/08/04 04:03:00;;;;;;;1.60;1.60;;;16.00;99.90;;;;;;4919773;29;20530;-70
2021/08/04 04:05:27;;;;;;;2.33;2.23;;;15.90;99.90;;;;;;4909591;29;20505;-70
2021/08/04 04:07:53;;;;;;;1.93;1.93;;;15.90;99.90;;;;;;4915894;29;20557;-70
2021/08/04 04:10:22;;;;;;;2.07;2.07;;;16.00;99.90;;;;;;4917919;29;20517;-70
2021/08/04 04:12:48;;;;;;;2.43;2.33;;;15.90;99.90;;;;;;4915597;29;20462;-70
2021/08/04 04:15:15;;;;;;;1.80;1.80;;;16.00;99.90;;;;;;4914669;29;20554;-70
2021/08/04 04:17:43;;;;;;;2.03;2.00;;;15.90;99.90;;;;;;4914942;29;20792;-70
2021/08/04 04:20:11;;;;;;;1.87;1.87;;;16.00;99.90;;;;;;4916432;29;20546;-70
2021/08/04 04:22:38;;;;;;;4.93;1.73;;;15.90;99.90;;;;;;4918784;29;20761;-70
2021/08/04 04:25:05;;;;;;;2.00;1.90;;;15.90;99.90;;;;;;4918910;29;20459;-70
2021/08/04 04:27:32;;;;;;;2.93;1.90;;;15.90;99.90;;;;;;4918636;29;20470;-70
2021/08/04 04:29:59;;;;;;;2.40;2.30;;;15.90;99.90;;;;;;4918851;29;20521;-70
2021/08/04 04:32:25;;;;;;;2.57;2.47;;;15.90;99.90;;;;;;4919037;29;20482;-70
2021/08/04 04:34:53;;;;;;;2.13;2.03;;;15.90;99.90;;;;;;4919631;29;20498;-70
2021/08/04 04:37:20;;;;;;;2.10;1.90;;;15.90;99.90;;;;;;4918642;29;20807;-70
2021/08/04 04:39:46;;;;;;;1.60;1.60;;;15.90;99.90;;;;;;4919020;29;20483;-71
2021/08/04 04:42:13;;;;;;;1.93;1.83;;;15.90;99.90;;;;;;4918491;29;20494;-71
2021/08/04 04:44:40;;;;;;;1.63;1.63;;;15.90;99.90;;;;;;4918464;29;20463;-71
2021/08/04 04:47:07;;;;;;;2.17;2.17;;;16.00;99.90;;;;;;4918545;29;20542;-70
2021/08/04 04:49:33;;;;;;;2.13;2.03;;;16.00;99.90;;;;;;4918942;29;20549;-72
2021/08/04 04:52:01;;;;;;;2.30;2.07;;;15.90;99.90;;;;;;4918631;29;20541;-72
2021/08/04 04:54:28;;;;;;;2.43;2.33;;;15.90;99.90;;;;;;4915992;29;20482;-72
2021/08/04 04:56:54;;;;;;;2.20;2.00;;;15.90;99.90;;;;;;4918508;29;20486;-72
2021/08/04 04:59:21;;;;;;;2.13;2.00;;;16.00;99.90;;;;;;4917861;29;20831;-71
2021/08/04 05:01:48;;;;;;;2.03;1.93;;;15.90;99.90;;;;;;4918281;29;20486;-71
2021/08/04 05:04:14;;;;;;;2.27;2.10;;;15.90;99.90;;;;;;4918361;29;20458;-71
2021/08/04 05:06:41;;;;;;;2.33;2.23;;;16.00;99.90;;;;;;4918369;29;20522;-70
2021/08/04 05:09:09;;;;;;;2.20;1.80;;;16.10;99.90;;;;;;4921373;29;20974;-71
2021/08/04 05:11:36;;;;;;;2.20;2.20;;;16.10;99.90;;;;;;4929283;29;20493;-71
2021/08/04 05:14:02;;;;;;;2.30;2.20;;;16.10;99.90;;;;;;4917552;29;20538;-70
2021/08/04 05:16:29;;;;;;;2.60;2.40;;;16.20;99.90;;;;;;4917837;29;20614;-72
2021/08/04 05:18:55;;;;;;;1.87;1.83;;;16.20;99.90;;;;;;4916134;29;20554;-71
2021/08/04 05:21:22;;;;;;;2.20;2.03;;;16.30;99.90;;;;;;4915458;29;20557;-71
2021/08/04 05:23:49;;;;;;;1.70;1.70;;;16.40;99.90;;;;;;4917224;29;20463;-71
2021/08/04 05:26:17;;;;;;;2.20;2.20;;;16.40;99.90;;;;;;4917882;29;20530;-71
2021/08/04 05:28:43;;;;;;;1.97;1.97;;;16.50;99.90;;;;;;4917726;29;20471;-71
2021/08/04 05:31:10;;;;;;;3.60;2.30;;;16.50;99.90;;;;;;4915455;29;20561;-71
2021/08/04 05:33:37;;;;;;;4.47;2.03;;;16.50;99.90;;;;;;4917024;29;20486;-71
2021/08/04 05:36:04;;;;;;;2.03;1.80;;;16.40;99.90;;;;;;4916795;29;21027;-71
2021/08/04 05:38:30;;;;;;;2.40;2.20;;;16.50;99.90;;;;;;4913694;29;20515;-71
2021/08/04 05:40:57;;;;;;;2.10;2.00;;;16.50;99.90;;;;;;4899591;29;20555;-71
2021/08/04 05:43:25;;;;;;;1.77;1.77;;;16.60;99.90;;;;;;4910412;29;20547;-69
2021/08/04 05:45:52;;;;;;;1.70;1.70;;;16.70;99.90;;;;;;4917232;29;20822;-72
2021/08/04 05:48:18;;;;;;;1.80;1.80;;;16.70;99.90;;;;;;4915695;29;20640;-72
2021/08/04 05:50:45;;;;;;;1.87;1.70;;;16.70;99.90;;;;;;4917412;29;20565;-72
2021/08/04 05:53:12;;;;;;;1.73;1.73;;;16.70;99.90;;;;;;4917408;29;20467;-71
2021/08/04 05:55:38;;;;;;;2.63;2.53;;;16.70;99.90;;;;;;4916901;29;20466;-71
2021/08/04 05:58:05;;;;;;;1.80;1.60;;;16.70;99.90;;;;;;4935029;29;20549;-74
2021/08/04 06:00:33;;;;;;;2.60;2.50;;;16.70;99.90;;;;;;4927431;29;20482;-72
2021/08/04 06:03:00;;;;;;;1.97;1.97;;;16.80;99.90;;;;;;4916680;29;20474;-73
2021/08/04 06:05:26;;;;;;;3.03;2.03;;;16.70;99.90;;;;;;4916630;29;20681;-71
2021/08/04 06:07:53;;;;;;;2.00;1.90;;;16.70;99.90;;;;;;4917724;29;20944;-73
2021/08/04 06:10:20;;;;;;;3.17;3.07;;;16.80;99.90;;;;;;4921310;29;20474;-73
2021/08/04 06:12:47;;;;;;;1.93;1.83;;;16.90;99.90;;;;;;4916083;29;20538;-73
2021/08/04 06:15:13;;;;;;;1.70;1.70;;;16.90;99.90;;;;;;4916241;29;20494;-72
2021/08/04 06:17:42;;;;;;;2.17;2.07;;;16.90;99.90;;;;;;4918148;29;20462;-72
2021/08/04 06:20:09;;;;;;;2.20;2.10;;;17.00;99.90;;;;;;4915872;29;20797;-72
2021/08/04 06:22:36;;;;;;;2.30;1.90;;;17.10;99.90;;;;;;4914939;29;20553;-72
2021/08/04 06:25:03;;;;;;;1.60;1.60;;;17.10;99.90;;;;;;4916016;29;20454;-73
2021/08/04 06:27:30;;;;;;;1.87;1.87;;;17.20;99.90;;;;;;4916738;29;20478;-73
2021/08/04 06:29:56;;;;;;;1.63;1.53;;;17.20;99.90;;;;;;4915893;29;20458;-73
2021/08/04 06:32:23;;;;;;;2.13;2.03;;;17.20;99.90;;;;;;4916643;29;20486;-72
2021/08/04 06:34:51;;;;;;;2.00;1.90;;;17.20;99.90;;;;;;4917005;29;20483;-73
2021/08/04 06:37:18;;;;;;;1.90;1.90;;;17.20;99.90;;;;;;4917648;29;20471;-73
2021/08/04 06:39:44;;;;;;;1.60;1.53;;;17.10;99.90;;;;;;4916818;29;20467;-72
2021/08/04 06:42:11;;;;;;;1.40;1.40;;;17.30;99.90;;;;;;4916621;29;20909;-72
2021/08/04 06:44:38;;;;;;;1.70;1.63;;;17.30;99.90;;;;;;4916800;29;20790;-73
2021/08/04 06:47:04;;;;;;;1.83;1.80;;;17.40;99.90;;;;;;4917454;29;20474;-74
2021/08/04 06:49:31;;;;;;;1.77;1.77;;;17.40;99.90;;;;;;4917695;29;20470;-74
2021/08/04 06:51:59;;;;;;;2.10;2.00;;;17.40;99.90;;;;;;4916433;29;20866;-73
2021/08/04 06:54:26;;;;;;;2.27;2.17;;;17.50;99.90;;;;;;4916833;29;20490;-73
2021/08/04 06:56:53;;;;;;;2.27;2.17;;;17.60;99.90;;;;;;4916092;29;20458;-73
2021/08/04 06:59:20;;;;;;;2.23;2.20;;;17.60;99.90;;;;;;4916106;29;20534;-74
2021/08/04 07:01:46;;;;;;;2.90;1.70;;;17.80;99.90;;;;;;4915766;29;20498;-74
2021/08/04 07:04:14;;;;;;;2.00;1.90;;;17.70;99.90;;;;;;4915931;29;20474;-74
2021/08/04 07:06:52;;;;;;;1.80;1.80;;;17.70;99.90;;;;;;4916041;29;20470;-74
2021/08/04 07:09:20;;;;;;;1.87;1.87;;;17.80;99.90;;;;;;4916235;29;20467;-74
2021/08/04 07:11:47;;;;;;;1.70;1.70;;;17.90;99.90;;;;;;4909416;29;20892;-71
2021/08/04 07:14:15;;;;;;;2.07;2.00;;;18.00;99.90;;;;;;4915377;29;20574;-70
2021/08/04 07:16:42;;;;;;;8.40;2.90;;;18.20;99.90;;;;;;4915608;29;20463;-72
2021/08/04 07:19:08;;;;;;;1.80;1.80;;;18.50;99.90;;;;;;4911719;29;20513;-68
2021/08/04 07:21:35;;;;;;;1.73;1.73;;;19.30;99.90;;;;;;4907742;29;20566;-69
2021/08/04 07:24:02;;;;;;;1.87;1.73;;;20.10;99.90;;;;;;4914983;29;20475;-68
2021/08/04 07:26:30;;;;;;;2.13;1.90;;;20.40;99.90;;;;;;4911756;29;20474;-69
2021/08/04 07:28:56;;;;;;;1.67;1.67;;;20.90;99.90;;;;;;4915983;29;20527;-68
2021/08/04 07:31:23;;;;;;;1.90;1.90;;;21.40;99.90;;;;;;4915358;29;20573;-67
2021/08/04 07:33:50;;;;;;;1.97;1.97;;;21.90;99.90;;;;;;4915575;29;20478;-66
2021/08/04 07:36:17;;;;;;;1.90;1.90;;;22.10;99.90;;;;;;4896799;29;20952;-68
2021/08/04 07:38:44;;;;;;;1.40;1.40;;;22.20;99.90;;;;;;4913491;29;20868;-67
2021/08/04 07:41:11;;;;;;;1.70;1.60;;;22.70;99.90;;;;;;4911853;29;20491;-67
2021/08/04 07:43:39;;;;;;;2.10;2.00;;;23.50;99.90;;;;;;4908190;29;20476;-68
2021/08/04 07:46:06;;;;;;;1.97;1.87;;;23.80;99.90;;;;;;4897169;29;20508;-70
2021/08/04 07:48:34;;;;;;;1.97;1.97;;;23.20;99.90;;;;;;4897747;29;20479;-70
2021/08/04 07:51:02;;;;;;;1.60;1.60;;;22.60;99.90;;;;;;4915154;29;20539;-69
2021/08/04 07:53:29;;;;;;;2.00;1.90;;;22.50;99.90;;;;;;4915101;29;20477;-69
2021/08/04 07:55:55;;;;;;;2.30;2.20;;;22.50;99.90;;;;;;4919745;29;20541;-69
2021/08/04 07:58:22;;;;;;;2.33;1.90;;;22.10;99.90;;;;;;4919553;29;20939;-68
2021/08/04 08:00:50;;;;;;;1.40;1.30;;;21.70;99.90;;;;;;4918857;29;20498;-68
2021/08/04 08:03:17;;;;;;;1.83;1.77;;;21.70;99.90;;;;;;4919428;29;20466;-68
2021/08/04 08:05:44;;;;;;;1.80;1.80;;;21.60;99.90;;;;;;4907522;29;20868;-68
2021/08/04 08:08:12;;;;;;;1.90;1.77;;;21.40;99.90;;;;;;4909324;29;20466;-68
2021/08/04 08:10:41;;;;;;;1.80;1.73;;;21.40;99.90;;;;;;4919020;29;20542;-69
2021/08/04 08:13:09;;;;;;;1.97;1.80;;;21.20;99.90;;;;;;4912683;29;20483;-68
2021/08/04 08:15:35;;;;;;;1.60;1.60;;;21.20;99.90;;;;;;4914113;29;20892;-68
2021/08/04 08:18:09;;;;;;;1.70;1.70;;;21.20;99.90;;;;;;4918300;29;20533;-68
2021/08/04 08:20:36;;;;;;;1.87;1.77;;;21.10;99.90;;;;;;4904882;29;20994;-68
2021/08/04 08:23:03;;;;;;;1.67;1.57;;;21.20;99.90;;;;;;4901371;29;20494;-69
2021/08/04 08:25:30;;;;;;;2.00;2.00;;;21.20;99.90;;;;;;4900321;29;20463;-69
2021/08/04 08:27:57;;;;;;;1.50;1.50;;;20.90;99.90;;;;;;4900728;29;20476;-69
2021/08/04 08:30:24;;;;;;;1.97;1.87;;;20.70;99.90;;;;;;4901720;29;20467;-68
2021/08/04 08:32:51;;;;;;;2.07;1.97;;;20.60;99.90;;;;;;4902645;29;20546;-69
2021/08/04 08:35:19;;;;;;;1.80;1.80;;;20.50;99.90;;;;;;4908169;29;20486;-69
2021/08/04 08:37:46;;;;;;;2.20;1.90;;;20.70;99.90;;;;;;4919073;29;20466;-67
2021/08/04 08:40:14;;;;;;;1.40;1.40;;;21.00;99.90;;;;;;4918810;29;20537;-68
2021/08/04 08:42:42;;;;;;;1.60;1.60;;;21.20;99.90;;;;;;4918146;29;20926;-69
2021/08/04 08:45:10;;;;;;;1.70;1.60;;;21.30;99.90;;;;;;4899535;29;20555;-69
2021/08/04 08:47:39;;;;;;;1.80;1.70;;;21.30;99.90;;;;;;4899258;29;20574;-69
2021/08/04 08:50:06;;;;;;;1.97;1.87;;;21.30;99.90;;;;;;4914124;29;20465;-71
2021/08/04 08:52:34;;;;;;;1.90;1.90;;;21.40;99.90;;;;;;4912501;29;20611;-72
2021/08/04 08:55:02;;;;;;;1.70;1.70;;;21.60;99.90;;;;;;4917210;29;20627;-72
2021/08/04 08:57:30;;;;;;;1.90;1.90;;;21.50;99.90;;;;;;4898974;29;21051;-72
2021/08/04 08:59:57;;;;;;;1.53;1.43;;;21.60;99.90;;;;;;4899932;29;20991;-70
2021/08/04 09:02:24;;;;;;;1.70;1.70;;;21.70;99.90;;;;;;4911426;29;20529;-70
2021/08/04 09:04:58;;;;;;;2.10;2.00;;;21.80;99.90;;;;;;4899490;29;20459;-70
2021/08/04 09:07:31;;;;;;;1.27;1.27;;;21.90;99.90;;;;;;4899032;29;20456;-69
2021/08/04 09:09:59;;;;;;;1.60;1.60;;;21.90;99.90;;;;;;4899354;29;20902;-67
2021/08/04 09:12:25;;;;;;;1.60;1.50;;;21.80;99.90;;;;;;4900690;29;20562;-65
2021/08/04 09:14:52;;;;;;;1.10;1.10;;;21.70;99.90;;;;;;4898649;29;20980;-66
2021/08/04 09:17:19;;;;;;;1.30;1.30;;;21.90;99.90;;;;;;4913939;29;20463;-69
2021/08/04 09:19:47;;;;;;;1.10;1.10;;;22.00;99.90;;;;;;4907294;29;21048;-68
2021/08/04 09:22:19;;;;;;;1.30;1.30;;;22.10;99.90;;;;;;4916406;29;20500;-68
2021/08/04 09:24:57;;;;;;;1.43;1.37;;;22.10;99.90;;;;;;4915756;29;20511;-70
2021/08/04 09:27:44;;;;;;;1.50;1.50;;;22.30;99.90;;;;;;4898745;29;20455;-68
2021/08/04 09:30:13;;;;;;;1.60;1.60;;;22.40;99.90;;;;;;4913349;29;20490;-68
2021/08/04 09:32:40;;;;;;;1.33;1.33;;;22.50;99.90;;;;;;4916559;29;20554;-71
2021/08/04 09:35:09;;;;;;;1.27;1.27;;;22.50;99.90;;;;;;4912337;29;20537;-70
2021/08/04 09:37:35;;;;;;;2.03;1.63;;;22.60;99.90;;;;;;4918347;29;20549;-70
2021/08/04 09:40:02;;;;;;;1.47;1.47;;;22.60;99.90;;;;;;4908907;29;21067;-71
2021/08/04 09:42:41;;;;;;;2.83;1.40;;;22.60;99.90;;;;;;4908427;29;20555;-70
2021/08/04 09:45:10;;;;;;;1.63;1.63;;;22.40;99.90;;;;;;4913818;29;20565;-70
2021/08/04 09:47:37;;;;;;;1.43;1.43;;;22.30;99.90;;;;;;4917684;29;20553;-70
2021/08/04 09:50:06;;;;;;;1.93;1.90;;;22.10;99.90;;;;;;4917236;29;20467;-70
2021/08/04 09:52:33;;;;;;;1.40;1.40;;;22.10;99.90;;;;;;4917376;29;20534;-70
2021/08/04 09:55:11;;;;;;;1.70;1.70;;;22.20;99.90;;;;;;4906857;29;20513;-70
2021/08/04 09:57:43;;;;;;;2.67;2.47;;;22.20;99.90;;;;;;4904394;29;20569;-70
2021/08/04 10:00:15;;;;;;;1.70;1.60;;;22.10;99.90;;;;;;4916808;29;20581;-71
2021/08/04 10:02:44;;;;;;;1.70;1.60;;;22.00;99.90;;;;;;4916658;29;21023;-70
2021/08/04 10:05:18;;;;;;;1.50;1.50;;;22.00;99.90;;;;;;4911589;29;20464;-68
2021/08/04 10:08:03;;;;;;;1.40;1.40;;;21.90;99.90;;;;;;4898357;29;20480;-68
2021/08/04 10:10:32;;;;;;;1.30;1.30;;;21.90;99.90;;;;;;4897547;29;21010;-69
2021/08/04 10:13:01;;;;;;;1.43;1.43;;;21.90;99.90;;;;;;4916188;29;20478;-65
2021/08/04 10:15:31;;;;;;;1.90;1.80;;;22.10;99.90;;;;;;4916823;29;20509;-67
2021/08/04 10:17:59;;;;;;;1.63;1.63;;;22.40;99.90;;;;;;4916336;29;20534;-69
2021/08/04 10:20:26;;;;;;;1.53;1.43;;;22.50;99.90;;;;;;4914972;29;20874;-69
2021/08/04 10:22:55;;;;;;;1.63;1.53;;;22.40;99.90;;;;;;4898407;29;20862;-69
2021/08/04 10:25:22;;;;;;;1.53;1.53;;;22.40;99.90;;;;;;4912472;29;20459;-69
2021/08/04 10:27:49;;;;;;;2.00;2.00;;;22.50;99.90;;;;;;4916799;29;20570;-69
2021/08/04 10:30:15;;;;;;;2.23;2.13;;;22.70;99.90;;;;;;4916695;29;20462;-69
2021/08/04 10:32:44;;;;;;;2.23;1.73;;;22.90;99.90;;;;;;4917212;29;20495;-68
2021/08/04 10:35:11;;;;;;;2.53;2.43;;;22.80;99.90;;;;;;4917077;29;20486;-69
2021/08/04 10:37:41;;;;;;;2.07;1.97;;;22.90;99.90;;;;;;4916981;29;20466;-69
2021/08/04 10:40:09;;;;;;;2.20;2.20;;;22.90;99.90;;;;;;4901521;29;20463;-69
2021/08/04 10:42:40;;;;;;;2.57;2.30;;;23.00;99.90;;;;;;4897735;29;20474;-69
2021/08/04 10:45:32;;;;;;;2.43;2.33;;;23.10;99.90;;;;;;4909408;29;20978;-69
2021/08/04 10:48:20;;;;;;;4.83;1.80;;;23.00;99.90;;;;;;4913731;29;20541;-67
2021/08/04 10:51:18;;;;;;;2.20;2.10;;;22.90;99.90;;;;;;4909697;29;20498;-68
2021/08/04 10:54:17;;;;;;;2.60;2.50;;;22.90;99.90;;;;;;4851437;29;20508;-67
2021/08/04 10:57:13;;;;;;;2.30;2.20;;;22.50;99.90;;;;;;4915162;29;20570;-68
2021/08/04 10:59:41;;;;;;;2.10;2.10;;;22.40;99.90;;;;;;4908708;29;20476;-68
2021/08/04 11:02:31;;;;;;;2.20;2.20;;;22.50;99.90;;;;;;4906239;29;20495;-67
2021/08/04 11:05:01;;;;;;;2.53;2.33;;;22.80;99.90;;;;;;4897779;29;20862;-68
2021/08/04 11:07:27;;;;;;;2.23;2.23;;;22.80;99.90;;;;;;4913788;29;20462;-68
2021/08/04 11:09:59;;;;;;;2.87;2.43;;;22.90;99.90;;;;;;4908073;29;20622;-67
2021/08/04 11:12:48;;;;;;;2.10;2.00;;;23.10;99.90;;;;;;4915264;29;20505;-67
2021/08/04 11:15:31;;;;;;;2.50;2.30;;;23.30;99.90;;;;;;4907237;29;20529;-68
2021/08/04 11:18:08;;;;;;;2.43;2.27;;;23.30;99.90;;;;;;4916087;29;20478;-67
2021/08/04 11:20:38;;;;;;;2.50;2.40;;;23.40;99.90;;;;;;4906426;29;20486;-67
2021/08/04 11:23:09;;;;;;;2.20;2.10;;;23.40;99.90;;;;;;4915871;29;20541;-67
2021/08/04 11:25:42;;;;;;;2.30;2.20;;;23.40;99.90;;;;;;4909339;29;20589;-69
2021/08/04 11:28:18;;;;;;;2.73;2.57;;;23.20;99.90;;;;;;4911612;29;20585;-70
2021/08/04 11:30:51;;;;;;;1.90;1.80;;;23.10;99.90;;;;;;4900376;29;20515;-69
2021/08/04 11:33:33;;;;;;;1.90;1.90;;;23.10;99.90;;;;;;4912974;29;20649;-69
2021/08/04 11:36:11;;;;;;;3.20;2.30;;;23.10;99.90;;;;;;4911048;29;20484;-69
2021/08/04 11:38:39;;;;;;;2.10;2.10;;;22.80;99.90;;;;;;4915284;29;20470;-69
2021/08/04 11:41:18;;;;;;;2.67;2.57;;;22.80;99.90;;;;;;4900934;29;20494;-69
2021/08/04 11:43:46;;;;;;;2.60;2.40;;;22.80;99.90;;;;;;4911880;29;20549;-69
2021/08/04 11:46:28;;;;;;;2.00;2.00;;;22.70;99.90;;;;;;4915770;29;20450;-68
2021/08/04 11:48:55;;;;;;;2.13;2.13;;;22.60;99.90;;;;;;4913249;29;20471;-70
2021/08/04 11:51:34;;;;;;;2.60;2.50;;;22.60;99.90;;;;;;4914734;29;20494;-68
2021/08/04 11:54:01;;;;;;;2.00;2.00;;;22.60;99.90;;;;;;4908794;29;20487;-67
2021/08/04 11:56:28;;;;;;;2.90;2.80;;;22.40;99.90;;;;;;4920248;29;20903;-70
2021/08/04 11:59:01;;;;;;;2.73;2.50;;;22.30;99.90;;;;;;4915714;29;20478;-69
2021/08/04 12:01:28;;;;;;;2.43;2.37;;;22.20;99.90;;;;;;4923020;29;20487;-68
2021/08/04 12:04:11;;;;;;;3.33;3.13;;;21.90;99.90;;;;;;4913025;29;20482;-68
2021/08/04 12:06:40;;;;;;;2.93;2.77;;;21.40;99.90;;;;;;4911810;29;20470;-67
2021/08/04 12:09:21;;;;;;;3.40;3.27;;;20.80;99.90;;;;;;4915229;29;20569;-69
2021/08/04 12:11:49;;;;;;;4.73;4.43;;;19.90;99.90;;;;;;4915018;29;20510;-71
2021/08/04 12:14:18;;;;;;;2.93;2.83;;;19.60;99.90;;;;;;4915149;29;20466;-70
2021/08/04 12:16:47;;;;;;;3.53;3.43;;;19.20;99.90;;;;;;4911555;29;20474;-71
2021/08/04 12:19:27;;;;;;;3.60;3.40;;;18.70;99.90;;;;;;4911233;29;20490;-72
2021/08/04 12:21:55;;;;;;;3.53;3.40;;;18.60;99.90;;;;;;4911679;29;20493;-72
2021/08/04 12:24:22;;;;;;;5.43;4.30;;;18.60;99.90;;;;;;4914914;29;20463;-69
2021/08/04 12:26:49;;;;;;;3.83;3.73;;;18.40;99.90;;;;;;4905329;29;20470;-71
2021/08/04 12:29:17;;;;;;;4.57;4.07;;;18.00;99.90;;;;;;4901324;29;20463;-71
2021/08/04 12:32:03;;;;;;;6.27;5.70;;;17.70;99.90;;;;;;4907217;29;20826;-71
2021/08/04 12:34:31;;;;;;;5.53;5.03;;;17.40;99.90;;;;;;4897023;29;20464;-72
2021/08/04 12:37:00;;;;;;;7.23;5.00;;;17.10;99.90;;;;;;4903660;29;21010;-72
2021/08/04 12:39:29;;;;;;;4.70;4.30;;;17.00;99.90;;;;;;4914288;29;20553;-72
2021/08/04 12:41:56;;;;;;;4.37;4.13;;;17.00;99.90;;;;;;4902051;29;20597;-72
2021/08/04 12:44:24;;;;;;;5.03;4.47;;;17.00;99.90;;;;;;4916709;29;20463;-72
2021/08/04 12:46:51;;;;;;;5.33;4.50;;;17.00;99.90;;;;;;4909043;29;20495;-73
2021/08/04 12:49:21;;;;;;;4.23;3.97;;;16.90;99.90;;;;;;4913386;29;20469;-73
2021/08/04 12:51:55;;;;;;;3.73;3.53;;;16.80;99.90;;;;;;4912537;29;20514;-73
2021/08/04 12:54:30;;;;;;;3.90;3.70;;;16.80;99.90;;;;;;4909115;29;20548;-72
2021/08/04 12:56:57;;;;;;;4.40;4.00;;;16.80;99.90;;;;;;4917826;29;20486;-73
2021/08/04 12:59:25;;;;;;;4.77;4.47;;;17.00;99.90;;;;;;4915826;29;20471;-72
2021/08/04 13:02:08;;;;;;;4.80;4.50;;;17.10;99.90;;;;;;4910273;29;21036;-72
2021/08/04 13:04:37;;;;;;;4.03;3.93;;;17.30;99.90;;;;;;4914709;29;20815;-73
2021/08/04 13:07:05;;;;;;;4.50;4.17;;;17.30;99.90;;;;;;4917577;29;20941;-73
2021/08/04 13:09:50;;;;;;;3.93;3.60;;;17.20;99.90;;;;;;4930026;29;20458;-67
2021/08/04 13:12:19;;;;;;;4.00;3.90;;;17.40;99.90;;;;;;4915820;29;20482;-68
2021/08/04 13:15:11;;;;;;;4.03;3.93;;;17.60;99.90;;;;;;4916711;29;20589;-67
2021/08/04 13:17:40;;;;;;;4.60;4.40;;;17.70;99.90;;;;;;4917693;29;20995;-68
2021/08/04 13:20:13;;;;;;;3.23;3.20;;;17.80;99.90;;;;;;4907968;29;20458;-68
2021/08/04 13:22:55;;;;;;;3.13;3.00;;;17.90;99.90;;;;;;4917510;29;20784;-68
2021/08/04 13:25:24;;;;;;;3.33;3.23;;;18.00;99.90;;;;;;4916216;29;21048;-67
2021/08/04 13:27:59;;;;;;;3.00;2.90;;;18.10;99.90;;;;;;4918512;29;20522;-67
2021/08/04 13:30:28;;;;;;;3.50;3.33;;;18.20;99.90;;;;;;4909350;29;20462;-69
2021/08/04 13:32:55;;;;;;;3.63;3.50;;;18.30;99.90;;;;;;4907189;29;20498;-69
2021/08/04 13:35:22;;;;;;;2.80;2.80;;;18.30;99.90;;;;;;4913995;29;20530;-69
2021/08/04 13:37:49;;;;;;;2.93;2.93;;;18.50;99.90;;;;;;4917706;29;20486;-68
2021/08/04 13:40:16;;;;;;;3.63;3.53;;;18.70;99.90;;;;;;4914583;29;20537;-70
2021/08/04 13:42:45;;;;;;;3.57;3.47;;;18.90;99.90;;;;;;4904830;29;20602;-70
2021/08/04 13:45:14;;;;;;;3.73;3.50;;;19.10;99.90;;;;;;4907498;29;20971;-71
2021/08/04 13:47:41;;;;;;;4.83;4.57;;;19.10;99.90;;;;;;4917453;29;20459;-70
2021/08/04 13:50:09;;;;;;;4.43;4.23;;;19.20;99.90;;;;;;4916765;29;20474;-70
2021/08/04 13:52:37;;;;;;;3.43;3.33;;;19.20;99.90;;;;;;4899114;29;20463;-70
2021/08/04 13:55:07;;;;;;;3.13;3.03;;;19.20;99.90;;;;;;4905661;29;21030;-70
2021/08/04 13:57:34;;;;;;;3.40;3.40;;;19.20;99.90;;;;;;4917124;29;20541;-70
2021/08/04 14:00:02;;;;;;;3.20;2.93;;;19.20;99.90;;;;;;4915500;29;20463;-71
2021/08/04 14:02:28;;;;;;;3.00;2.90;;;19.20;99.90;;;;;;4914656;29;20517;-70
2021/08/04 14:04:55;;;;;;;3.70;3.57;;;19.30;99.90;;;;;;4915861;29;20470;-71
2021/08/04 14:07:22;;;;;;;3.40;3.30;;;19.50;99.90;;;;;;4899579;29;20476;-70
2021/08/04 14:09:49;;;;;;;3.90;3.70;;;19.60;99.90;;;;;;4905679;29;20797;-73
2021/08/04 14:12:17;;;;;;;4.20;3.90;;;19.60;99.90;;;;;;4911433;29;20823;-72
2021/08/04 14:14:43;;;;;;;3.70;3.53;;;19.70;99.90;;;;;;4907724;29;20466;-73
2021/08/04 14:17:12;;;;;;;3.47;2.97;;;19.70;99.90;;;;;;4916233;29;20517;-74
2021/08/04 14:19:38;;;;;;;3.50;2.90;;;19.70;99.90;;;;;;4909236;29;20458;-72
2021/08/04 14:22:05;;;;;;;3.40;3.20;;;19.80;99.90;;;;;;4910000;29;21002;-73
2021/08/04 14:24:32;;;;;;;3.87;3.77;;;19.90;99.90;;;;;;4916759;29;22048;-73
2021/08/04 14:26:58;;;;;;;3.00;2.90;;;19.80;99.90;;;;;;4912738;29;20464;-72
2021/08/04 14:29:25;;;;;;;3.47;3.37;;;19.80;99.90;;;;;;4899206;29;20866;-73
2021/08/04 14:31:52;;;;;;;3.00;2.90;;;19.90;99.90;;;;;;4916814;29;20991;-71
2021/08/04 14:34:20;;;;;;;3.60;3.50;;;20.00;99.90;;;;;;4910238;29;20491;-70
2021/08/04 14:36:47;;;;;;;3.47;3.37;;;20.00;99.90;;;;;;4916546;29;20491;-70
2021/08/04 14:39:13;;;;;;;3.53;3.30;;;20.00;99.90;;;;;;4910528;29;20482;-69
2021/08/04 14:41:40;;;;;;;3.00;2.90;;;20.10;99.90;;;;;;4914788;29;20482;-69
2021/08/04 14:44:07;;;;;;;3.30;3.20;;;20.20;99.90;;;;;;4913227;29;20522;-69
2021/08/04 14:46:34;;;;;;;2.80;2.80;;;20.20;99.90;;;;;;4916599;29;20522;-69
2021/08/04 14:49:01;;;;;;;3.10;3.00;;;20.20;99.90;;;;;;4915910;29;20864;-70
2021/08/04 14:51:30;;;;;;;2.77;2.77;;;20.20;99.90;;;;;;4915615;29;20486;-69
2021/08/04 14:53:57;;;;;;;2.83;2.70;;;20.20;99.90;;;;;;4908696;29;20546;-69
2021/08/04 14:56:23;;;;;;;2.43;2.43;;;20.20;99.90;;;;;;4915858;29;20573;-70
2021/08/04 14:58:50;;;;;;;2.73;2.63;;;20.10;99.90;;;;;;4915258;29;20493;-69
2021/08/04 15:01:17;;;;;;;2.67;2.47;;;20.10;99.90;;;;;;4913163;29;20875;-73
2021/08/04 15:03:43;;;;;;;3.03;2.83;;;19.90;99.90;;;;;;4904989;29;20559;-72
2021/08/04 15:06:10;;;;;;;3.00;2.90;;;19.90;99.90;;;;;;4910696;29;20972;-73
2021/08/04 15:08:38;;;;;;;3.00;2.90;;;19.90;99.90;;;;;;4915310;29;20477;-72
2021/08/04 15:11:04;;;;;;;2.43;2.33;;;19.80;99.90;;;;;;4915456;29;20508;-72
2021/08/04 15:13:31;;;;;;;2.97;2.87;;;19.80;99.90;;;;;;4915006;29;20868;-71
2021/08/04 15:15:58;;;;;;;3.40;3.10;;;19.90;99.90;;;;;;4912229;29;20494;-72
2021/08/04 15:18:25;;;;;;;2.90;2.80;;;19.80;99.90;;;;;;4908021;29;21041;-69
2021/08/04 15:20:52;;;;;;;2.50;2.50;;;19.70;99.90;;;;;;4906002;29;20490;-73
2021/08/04 15:23:18;;;;;;;2.80;2.80;;;19.70;99.90;;;;;;4915472;29;20461;-72
2021/08/04 15:25:46;;;;;;;2.37;2.27;;;19.60;99.90;;;;;;4915698;29;20517;-72
2021/08/04 15:28:13;;;;;;;2.70;2.60;;;19.60;99.90;;;;;;4904381;29;20514;-72
2021/08/04 15:30:40;;;;;;;2.90;2.90;;;19.70;99.90;;;;;;4912719;29;20767;-71
2021/08/04 15:33:07;;;;;;;2.67;2.57;;;19.70;99.90;;;;;;4914805;29;20561;-72
2021/08/04 15:35:37;;;;;;;2.27;2.27;;;19.60;99.90;;;;;;4915452;29;20522;-71
2021/08/04 15:38:04;;;;;;;2.30;2.30;;;19.70;99.90;;;;;;4915511;29;20629;-70
2021/08/04 15:40:31;;;;;;;2.60;2.50;;;19.70;99.90;;;;;;4901276;29;20831;-70
2021/08/04 15:43:00;;;;;;;2.23;2.23;;;19.50;99.90;;;;;;4911572;29;20482;-71
2021/08/04 15:45:27;;;;;;;3.10;2.90;;;19.40;99.90;;;;;;4914225;29;20548;-69
2021/08/04 15:47:53;;;;;;;3.00;2.90;;;19.30;99.90;;;;;;4913286;29;20518;-70
2021/08/04 15:50:20;;;;;;;2.50;2.50;;;19.30;99.90;;;;;;4900470;29;20463;-72
2021/08/04 15:52:46;;;;;;;2.60;2.60;;;19.30;99.90;;;;;;4910052;29;20482;-71
2021/08/04 15:55:13;;;;;;;3.70;3.13;;;19.30;99.90;;;;;;4913133;29;20469;-70
2021/08/04 15:57:40;;;;;;;3.03;2.63;;;19.40;99.90;;;;;;4910617;29;20490;-70
2021/08/04 16:00:11;;;;;;;2.67;2.67;;;19.50;99.90;;;;;;4915568;29;20530;-69
2021/08/04 16:02:39;;;;;;;2.73;2.63;;;19.40;99.90;;;;;;4910879;29;20486;-69
2021/08/04 16:05:06;;;;;;;2.20;2.20;;;19.50;99.90;;;;;;4912905;29;20538;-70
2021/08/04 16:07:33;;;;;;;3.07;2.87;;;19.50;99.90;;;;;;4912878;29;20910;-71
2021/08/04 16:09:59;;;;;;;2.10;2.10;;;19.50;99.90;;;;;;4913976;29;20462;-70
2021/08/04 16:12:28;;;;;;;2.60;2.60;;;19.50;99.90;;;;;;4912436;29;21061;-71
2021/08/04 16:14:55;;;;;;;2.70;2.47;;;19.50;99.90;;;;;;4913827;29;20470;-70
2021/08/04 16:17:23;;;;;;;3.20;3.10;;;19.50;99.90;;;;;;4906702;29;20497;-71
2021/08/04 16:19:53;;;;;;;2.73;2.53;;;19.50;99.90;;;;;;4909572;29;20466;-70
2021/08/04 16:22:19;;;;;;;3.43;3.27;;;19.40;99.90;;;;;;4914210;29;20504;-71
2021/08/04 16:24:46;;;;;;;3.03;2.83;;;19.10;99.90;;;;;;4917686;29;20935;-71
2021/08/04 16:27:13;;;;;;;2.93;2.83;;;19.00;99.90;;;;;;4917604;29;21048;-71
2021/08/04 16:29:39;;;;;;;2.73;2.60;;;19.00;99.90;;;;;;4913673;29;20595;-72
2021/08/04 16:32:07;;;;;;;3.60;3.40;;;19.00;99.90;;;;;;4906732;29;20545;-72
2021/08/04 16:34:37;;;;;;;3.90;3.70;;;18.90;99.90;;;;;;4910287;29;20510;-72
2021/08/04 16:37:05;;;;;;;3.50;3.40;;;18.90;99.90;;;;;;4917998;29;20474;-70
2021/08/04 16:39:31;;;;;;;2.93;2.90;;;18.90;99.90;;;;;;4918708;29;20466;-70
2021/08/04 16:41:58;;;;;;;2.43;2.33;;;18.90;99.90;;;;;;4918171;29;20482;-70
2021/08/04 16:44:25;;;;;;;2.63;2.50;;;19.00;99.90;;;;;;4916248;29;20466;-70
2021/08/04 16:46:52;;;;;;;2.53;2.53;;;18.90;99.90;;;;;;4919161;29;20525;-69
2021/08/04 16:49:18;;;;;;;3.17;2.87;;;18.90;99.90;;;;;;4918275;29;20532;-70
2021/08/04 16:51:48;;;;;;;2.40;2.40;;;19.00;99.90;;;;;;4910618;29;20589;-69
2021/08/04 16:54:15;;;;;;;2.27;2.10;;;19.00;99.90;;;;;;4918223;29;20972;-70
2021/08/04 16:56:41;;;;;;;3.10;3.00;;;19.00;99.90;;;;;;4917254;29;20526;-70